Gotham, Wisconsin
Current Conditions -  °F | °C
As of 5:06 AM on Friday 28 Nov 2014 (Local Time) from KLNR Reporting Station
Light Snow Light Snow  
Wind Chill:   Ceiling: 2900
Heat Index: 18°   Visibility: 2.5mi
Dew Point: 10°   Wind: 7mph
Humidity: 71%   Direction: 120°ESE
Pressure: 30.23"   Gusts: NA
Location:  43.22°N, 90.29°W
Report Text: KLNR 281106Z AUTO 12006KT 2 1/2SM -SN OVC029 M08/M12 A3023 RMK AO2 P0000 T10781122
Loading
Personal Weather Stations






























Interactive Weather Map New forecast layout! Learn more

10-Day Weather Forecast

Advertisements
Track Severe Weather on mobile